createdAt,value
2022-10-22T00:00:07.422Z,8.22
2022-10-22T00:01:04.547Z,8.18
2022-10-22T00:02:01.314Z,8.18
2022-10-22T00:02:58.107Z,8.03
2022-10-22T00:03:55.358Z,8.12
2022-10-22T00:04:52.057Z,8.27
2022-10-22T00:05:48.956Z,7.96
2022-10-22T00:06:45.674Z,7.58
2022-10-22T00:07:42.698Z,8.24
2022-10-22T00:08:39.885Z,8.61
2022-10-22T00:09:36.641Z,8.69
2022-10-22T00:10:33.399Z,8.46
2022-10-22T00:11:30.238Z,8.37
2022-10-22T00:12:27.886Z,8.22
2022-10-22T00:13:25.284Z,7.86
2022-10-22T00:14:22.119Z,8.41
2022-10-22T00:15:19.373Z,8.33
2022-10-22T00:16:16.043Z,8.50
2022-10-22T00:17:13.074Z,8.38
2022-10-22T00:18:09.796Z,8.60
2022-10-22T00:19:06.510Z,7.67
2022-10-22T00:20:04.747Z,8.40
2022-10-22T00:21:01.636Z,8.27
2022-10-22T00:21:58.370Z,7.21
2022-10-22T00:22:55.066Z,8.60
2022-10-22T00:23:51.838Z,8.66
2022-10-22T00:24:48.532Z,8.68
2022-10-22T00:25:45.210Z,8.71
2022-10-22T00:26:41.952Z,8.76
2022-10-22T00:27:38.831Z,8.75
2022-10-22T00:28:35.752Z,8.31
2022-10-22T00:29:32.865Z,8.60
2022-10-22T00:30:29.542Z,8.52
2022-10-22T00:31:26.212Z,8.38
2022-10-22T00:32:22.986Z,8.28
2022-10-22T00:33:19.674Z,8.23
2022-10-22T00:34:18.779Z,8.26
2022-10-22T00:35:15.525Z,8.35
2022-10-22T00:36:12.762Z,8.30
2022-10-22T00:37:09.467Z,8.29
2022-10-22T00:38:06.169Z,7.16
2022-10-22T00:39:03.082Z,8.19
2022-10-22T00:39:59.810Z,8.52
2022-10-22T00:40:56.618Z,7.96
2022-10-22T00:41:55.885Z,8.06
2022-10-22T00:42:52.573Z,8.13
2022-10-22T00:43:57.138Z,8.08
2022-10-22T00:45:02.882Z,8.18
2022-10-22T00:45:59.762Z,8.02
2022-10-22T00:46:56.459Z,7.93
2022-10-22T00:47:55.811Z,8.28
2022-10-22T00:48:54.840Z,8.06
2022-10-22T00:49:55.875Z,8.11
2022-10-22T00:51:03.012Z,8.17
2022-10-22T00:51:59.825Z,8.23
2022-10-22T00:52:58.564Z,7.56
2022-10-22T00:54:01.518Z,7.98
2022-10-22T00:54:58.494Z,8.62
2022-10-22T00:55:55.963Z,8.59
2022-10-22T00:56:52.877Z,8.53
2022-10-22T00:57:50.227Z,8.46
2022-10-22T00:58:55.557Z,8.22
2022-10-22T00:59:52.423Z,8.07
2022-10-22T01:00:49.474Z,7.89
2022-10-22T01:01:46.837Z,8.01
2022-10-22T01:02:44.021Z,8.02
2022-10-22T01:03:41.104Z,7.36
2022-10-22T01:04:37.888Z,7.87
2022-10-22T01:05:44.635Z,8.02
2022-10-22T01:06:41.578Z,7.77
2022-10-22T01:07:44.592Z,7.29
2022-10-22T01:08:52.070Z,8.28
2022-10-22T01:10:27.334Z,8.06
2022-10-22T01:11:42.370Z,7.97
2022-10-22T01:12:58.564Z,7.92
2022-10-22T01:14:26.609Z,7.84
2022-10-22T01:15:45.841Z,7.60
2022-10-22T01:17:00.604Z,7.76
2022-10-22T01:18:10.802Z,7.77
2022-10-22T01:19:10.535Z,8.12
2022-10-22T01:20:13.164Z,8.09
2022-10-22T01:21:36.381Z,7.55
2022-10-22T01:22:40.361Z,7.77
2022-10-22T01:24:07.329Z,7.56
2022-10-22T01:25:34.191Z,7.61
2022-10-22T01:26:52.736Z,7.62
2022-10-22T01:28:01.178Z,7.58
2022-10-22T01:28:57.859Z,7.51
2022-10-22T01:30:08.219Z,7.57
2022-10-22T01:31:08.824Z,7.30
2022-10-22T01:32:12.774Z,7.68
2022-10-22T01:33:14.178Z,7.68
2022-10-22T01:34:16.241Z,7.08
2022-10-22T01:35:19.479Z,7.59
2022-10-22T01:36:19.140Z,7.48
2022-10-22T01:37:19.990Z,5.69
2022-10-22T01:38:22.938Z,7.67
2022-10-22T01:39:23.305Z,7.67
2022-10-22T01:40:23.095Z,6.70
2022-10-22T01:41:20.179Z,7.61
2022-10-22T01:42:16.938Z,7.69
2022-10-22T01:43:14.266Z,6.77
2022-10-22T01:44:24.855Z,8.01
2022-10-22T01:45:21.749Z,8.03
2022-10-22T01:46:22.282Z,7.79
2022-10-22T01:47:36.996Z,7.82
2022-10-22T01:48:51.814Z,7.72
2022-10-22T01:50:29.773Z,7.71
2022-10-22T01:51:52.794Z,7.33
2022-10-22T01:52:56.897Z,7.59
2022-10-22T01:54:08.725Z,7.66
2022-10-22T01:55:27.593Z,7.51
2022-10-22T01:56:42.321Z,7.62
2022-10-22T01:57:47.581Z,7.28
2022-10-22T01:58:53.235Z,7.60
2022-10-22T01:59:58.013Z,7.76
2022-10-22T02:01:07.566Z,7.66
2022-10-22T02:02:13.245Z,7.60
2022-10-22T02:03:22.785Z,7.71
2022-10-22T02:04:34.096Z,7.72
2022-10-22T02:05:48.280Z,8.28
2022-10-22T02:06:50.096Z,8.22
2022-10-22T02:07:55.974Z,8.04
2022-10-22T02:08:56.384Z,8.14
2022-10-22T02:09:56.253Z,8.08
2022-10-22T02:10:54.778Z,8.15
2022-10-22T02:11:54.182Z,7.98
2022-10-22T02:12:55.944Z,7.34
2022-10-22T02:13:59.797Z,7.68
2022-10-22T02:15:00.676Z,7.89
2022-10-22T02:16:00.154Z,7.86
2022-10-22T02:17:00.371Z,7.72
2022-10-22T02:18:01.426Z,7.82
2022-10-22T02:19:06.590Z,7.75
2022-10-22T02:20:12.843Z,7.46
2022-10-22T02:21:09.940Z,7.34
2022-10-22T02:22:08.062Z,7.41
2022-10-22T02:23:05.199Z,7.49
2022-10-22T02:24:01.982Z,7.54
2022-10-22T02:24:59.055Z,6.45
2022-10-22T02:26:22.112Z,7.43
2022-10-22T02:27:45.052Z,7.51
2022-10-22T02:29:14.945Z,7.36
2022-10-22T02:30:21.413Z,7.16
2022-10-22T02:31:29.734Z,7.39
2022-10-22T02:32:34.846Z,7.05
2022-10-22T02:33:39.596Z,7.35
2022-10-22T02:34:36.311Z,7.42
2022-10-22T02:35:35.354Z,7.52
2022-10-22T02:36:32.533Z,7.60
2022-10-22T02:37:29.851Z,7.48
2022-10-22T02:38:28.255Z,7.46
2022-10-22T02:39:26.795Z,7.59
2022-10-22T02:40:25.166Z,7.19
2022-10-22T02:41:22.730Z,7.39
2022-10-22T02:42:19.612Z,7.28
2022-10-22T02:43:18.483Z,7.39
2022-10-22T02:44:15.146Z,6.70
2022-10-22T02:45:12.139Z,7.48
2022-10-22T02:46:10.198Z,7.45
2022-10-22T02:47:07.073Z,6.79
2022-10-22T02:48:04.082Z,6.51
2022-10-22T02:49:00.873Z,7.69
2022-10-22T02:49:57.605Z,7.69
2022-10-22T02:50:54.309Z,7.83
2022-10-22T02:51:51.020Z,7.83
2022-10-22T02:52:47.885Z,6.88
2022-10-22T02:53:44.598Z,7.92
2022-10-22T02:54:41.332Z,8.03
2022-10-22T02:55:38.072Z,7.81
2022-10-22T02:56:34.882Z,7.86
2022-10-22T02:57:31.937Z,7.74
2022-10-22T02:58:28.621Z,7.47
2022-10-22T02:59:25.320Z,7.52
2022-10-22T03:00:22.421Z,7.44
2022-10-22T03:01:19.168Z,7.06
2022-10-22T03:02:16.598Z,6.26
2022-10-22T03:03:13.291Z,7.07
2022-10-22T03:04:10.046Z,7.37
2022-10-22T03:05:07.424Z,7.36
2022-10-22T03:06:04.335Z,7.17
2022-10-22T03:07:01.058Z,7.58
2022-10-22T03:07:57.768Z,7.31
2022-10-22T03:08:54.477Z,7.58
2022-10-22T03:09:51.575Z,7.79
2022-10-22T03:10:48.278Z,7.68
2022-10-22T03:11:44.959Z,7.58
2022-10-22T03:12:41.659Z,7.46
2022-10-22T03:13:38.376Z,7.48
2022-10-22T03:14:35.634Z,7.31
2022-10-22T03:15:32.396Z,7.22
2022-10-22T03:16:29.092Z,6.89
2022-10-22T03:17:25.802Z,7.11
2022-10-22T03:18:22.522Z,6.54
2022-10-22T03:19:19.409Z,7.26
2022-10-22T03:20:16.150Z,6.89
2022-10-22T03:21:34.184Z,7.33
2022-10-22T03:22:33.954Z,7.26
2022-10-22T03:23:32.912Z,7.23
2022-10-22T03:24:39.885Z,7.17
2022-10-22T03:25:39.190Z,6.95
2022-10-22T03:26:39.695Z,6.97
2022-10-22T03:27:39.889Z,6.92
2022-10-22T03:28:40.360Z,7.11
2022-10-22T03:29:40.304Z,7.45
2022-10-22T03:30:37.326Z,7.40
2022-10-22T03:31:34.010Z,7.54
2022-10-22T03:32:30.740Z,7.70
2022-10-22T03:33:27.478Z,7.43
2022-10-22T03:34:24.283Z,7.79
2022-10-22T03:35:21.184Z,6.87
2022-10-22T03:36:18.142Z,7.24
2022-10-22T03:37:15.011Z,6.61
2022-10-22T03:38:13.329Z,7.43
2022-10-22T03:39:14.319Z,7.38
2022-10-22T03:40:12.712Z,7.35
2022-10-22T03:41:10.601Z,7.01
2022-10-22T03:42:08.807Z,7.31
2022-10-22T03:43:05.922Z,6.43
2022-10-22T03:44:04.745Z,7.22
2022-10-22T03:45:01.442Z,7.19
2022-10-22T03:45:58.127Z,7.51
2022-10-22T03:46:58.620Z,7.66
2022-10-22T03:47:58.470Z,7.67
2022-10-22T03:48:55.186Z,7.51
2022-10-22T03:49:52.756Z,7.71
2022-10-22T03:50:49.800Z,7.84
2022-10-22T03:51:46.547Z,7.83
2022-10-22T03:52:43.298Z,7.68
2022-10-22T03:53:40.029Z,6.97
2022-10-22T03:55:35.333Z,7.41
2022-10-22T03:56:32.165Z,7.36
2022-10-22T03:57:28.850Z,7.40
2022-10-22T03:58:25.545Z,7.22
2022-10-22T03:59:22.255Z,7.76
2022-10-22T04:00:19.027Z,7.77
2022-10-22T04:01:15.849Z,7.89
2022-10-22T04:02:13.943Z,7.96
2022-10-22T04:03:10.623Z,7.96
2022-10-22T04:04:08.234Z,7.90
2022-10-22T04:05:05.286Z,7.70
2022-10-22T04:06:08.628Z,6.64
2022-10-22T04:07:06.716Z,7.39
2022-10-22T04:08:03.570Z,7.56
2022-10-22T04:09:01.265Z,7.69
2022-10-22T04:09:58.065Z,7.38
2022-10-22T04:10:54.771Z,7.75
2022-10-22T04:11:51.451Z,7.99
2022-10-22T04:12:48.729Z,8.02
2022-10-22T04:13:45.471Z,7.93
2022-10-22T04:14:42.220Z,7.99
2022-10-22T04:15:38.992Z,8.14
2022-10-22T04:16:35.644Z,8.13
2022-10-22T04:17:36.342Z,8.09
2022-10-22T04:18:33.022Z,8.18
2022-10-22T04:19:29.724Z,8.11
2022-10-22T04:20:26.475Z,8.02
2022-10-22T04:21:23.937Z,7.39
2022-10-22T04:22:20.602Z,6.92
2022-10-22T04:23:17.286Z,7.71
2022-10-22T04:24:13.988Z,7.66
2022-10-22T04:25:10.685Z,7.92
2022-10-22T04:26:08.189Z,7.64
2022-10-22T04:27:04.850Z,7.69
2022-10-22T04:28:01.540Z,7.37
2022-10-22T04:28:58.287Z,7.64
2022-10-22T04:29:54.965Z,7.66
2022-10-22T04:30:51.887Z,7.47
2022-10-22T04:31:48.757Z,7.76
2022-10-22T04:32:45.452Z,6.76
2022-10-22T04:33:42.786Z,7.10
2022-10-22T04:34:39.478Z,7.68
2022-10-22T04:35:39.693Z,7.94
2022-10-22T04:36:36.440Z,8.23
2022-10-22T04:37:34.110Z,8.25
2022-10-22T04:38:30.803Z,8.12
2022-10-22T04:39:27.576Z,8.10
2022-10-22T04:40:24.325Z,8.01
2022-10-22T04:41:25.475Z,7.80
2022-10-22T04:42:22.150Z,7.44
2022-10-22T04:43:18.826Z,7.64
2022-10-22T04:44:18.234Z,7.77
2022-10-22T04:45:15.832Z,7.39
2022-10-22T04:46:16.555Z,7.67
2022-10-22T04:47:13.300Z,7.48
2022-10-22T04:48:10.036Z,7.69
2022-10-22T04:49:06.823Z,7.63
2022-10-22T04:50:04.521Z,7.81
2022-10-22T04:51:01.227Z,8.13
2022-10-22T04:51:57.936Z,8.16
2022-10-22T04:52:54.670Z,8.02
2022-10-22T04:53:52.068Z,8.00
2022-10-22T04:54:49.323Z,7.78
2022-10-22T04:55:46.023Z,7.70
2022-10-22T04:56:42.750Z,7.84
2022-10-22T04:57:39.687Z,7.86
2022-10-22T04:58:37.009Z,7.99
2022-10-22T04:59:33.656Z,8.17
2022-10-22T05:00:30.340Z,8.35
2022-10-22T05:01:30.541Z,8.03
2022-10-22T05:02:27.278Z,8.14
2022-10-22T05:03:25.431Z,7.65
2022-10-22T05:04:22.133Z,8.14
2022-10-22T05:05:18.844Z,8.24
2022-10-22T05:06:16.645Z,8.01
2022-10-22T05:07:14.059Z,8.34
2022-10-22T05:08:10.766Z,8.31
2022-10-22T05:09:11.912Z,8.07
2022-10-22T05:10:09.128Z,7.45
2022-10-22T05:11:21.691Z,8.03
2022-10-22T05:12:18.505Z,8.05
2022-10-22T05:13:15.186Z,8.10
2022-10-22T05:14:13.115Z,7.89
2022-10-22T05:15:10.022Z,8.14
2022-10-22T05:16:07.026Z,7.68
2022-10-22T05:17:03.711Z,8.09
2022-10-22T05:18:00.434Z,8.19
2022-10-22T05:18:59.755Z,8.17
2022-10-22T05:19:56.446Z,8.14
2022-10-22T05:20:53.128Z,8.04
2022-10-22T05:21:50.934Z,7.99
2022-10-22T05:22:47.603Z,7.85
2022-10-22T05:23:46.978Z,7.62
2022-10-22T05:24:43.864Z,7.82
2022-10-22T05:25:40.772Z,7.84
2022-10-22T05:26:37.466Z,6.85
2022-10-22T05:27:34.432Z,7.78
2022-10-22T05:28:32.442Z,7.99
2022-10-22T05:29:29.146Z,8.13
2022-10-22T05:30:25.867Z,7.84
2022-10-22T05:31:22.797Z,7.48
2022-10-22T05:32:19.464Z,7.72
2022-10-22T05:33:17.346Z,7.82
2022-10-22T05:34:17.122Z,7.31
2022-10-22T05:35:13.970Z,7.61
2022-10-22T05:36:19.142Z,7.85
2022-10-22T05:37:15.822Z,7.85
2022-10-22T05:38:12.505Z,7.79
2022-10-22T05:39:09.675Z,7.73
2022-10-22T05:40:19.401Z,7.48
2022-10-22T05:41:24.926Z,7.90
2022-10-22T05:42:21.653Z,7.91
2022-10-22T05:43:18.404Z,7.54
2022-10-22T05:44:15.362Z,6.62
2022-10-22T05:45:12.087Z,7.75
2022-10-22T05:46:22.845Z,7.87
2022-10-22T05:47:19.846Z,7.86
2022-10-22T05:48:16.546Z,8.00
2022-10-22T05:49:15.415Z,7.91
2022-10-22T05:50:12.166Z,7.79
2022-10-22T05:51:12.839Z,8.28
2022-10-22T05:52:09.559Z,8.33
2022-10-22T05:53:06.298Z,8.29
2022-10-22T05:54:05.974Z,8.22
2022-10-22T05:55:02.707Z,8.09
2022-10-22T05:56:08.997Z,8.13
2022-10-22T05:57:05.679Z,7.89
2022-10-22T05:58:03.592Z,8.48
2022-10-22T06:00:04.023Z,7.03
2022-10-22T06:01:07.193Z,8.32
2022-10-22T06:02:03.985Z,8.32
2022-10-22T06:03:00.870Z,7.15
2022-10-22T06:04:00.320Z,8.23
2022-10-22T06:04:57.002Z,8.27
2022-10-22T06:05:54.147Z,8.46
2022-10-22T06:06:53.314Z,8.54
2022-10-22T06:07:50.033Z,8.70
2022-10-22T06:08:50.395Z,8.85
2022-10-22T06:09:50.192Z,9.04
2022-10-22T06:10:46.934Z,7.95
2022-10-22T06:11:44.305Z,9.24
2022-10-22T06:12:41.391Z,9.22
2022-10-22T06:13:38.693Z,9.30
2022-10-22T06:14:35.367Z,9.40
2022-10-22T06:15:32.065Z,9.54
2022-10-22T06:16:29.904Z,9.61
2022-10-22T06:17:26.870Z,9.22
2022-10-22T06:18:23.589Z,9.67
2022-10-22T06:19:22.813Z,9.41
2022-10-22T06:20:19.679Z,9.68
2022-10-22T06:21:17.144Z,9.39
2022-10-22T06:22:13.811Z,9.78
2022-10-22T06:23:10.568Z,9.74
2022-10-22T06:24:09.721Z,9.77
2022-10-22T06:25:08.347Z,9.91
2022-10-22T06:26:07.127Z,9.77
2022-10-22T06:27:03.865Z,9.94
2022-10-22T06:28:00.587Z,9.84
2022-10-22T06:28:58.563Z,9.36
2022-10-22T06:29:55.273Z,9.26
2022-10-22T06:30:51.988Z,9.85
2022-10-22T06:31:49.316Z,9.76
2022-10-22T06:32:46.021Z,9.85
2022-10-22T06:33:43.365Z,9.78
2022-10-22T06:34:40.404Z,9.50
2022-10-22T06:35:37.083Z,10.12
2022-10-22T06:36:34.955Z,9.96
2022-10-22T06:37:31.715Z,10.09
2022-10-22T06:38:28.409Z,10.10
2022-10-22T06:39:25.137Z,10.14
2022-10-22T06:40:21.953Z,9.88
2022-10-22T06:41:19.609Z,10.20
2022-10-22T06:42:16.271Z,10.17
2022-10-22T06:43:14.975Z,10.38
2022-10-22T06:44:16.675Z,10.19
2022-10-22T06:45:13.575Z,9.89
2022-10-22T06:46:13.714Z,9.45
2022-10-22T06:47:12.843Z,9.94
2022-10-22T06:48:09.627Z,9.67
2022-10-22T06:49:06.336Z,10.27
2022-10-22T06:50:03.195Z,10.32
2022-10-22T06:51:05.833Z,10.15
2022-10-22T06:52:02.514Z,10.10
2022-10-22T06:52:59.206Z,10.15
2022-10-22T06:53:57.844Z,10.23
2022-10-22T06:54:54.521Z,10.13
2022-10-22T06:55:51.211Z,10.52
2022-10-22T06:56:47.934Z,10.60
2022-10-22T06:57:44.699Z,10.72
2022-10-22T06:58:42.202Z,10.41
2022-10-22T06:59:39.018Z,10.19
2022-10-22T07:00:35.750Z,8.34
2022-10-22T07:01:34.760Z,9.78
2022-10-22T07:02:31.598Z,10.73
2022-10-22T07:03:28.441Z,10.78
2022-10-22T07:04:25.156Z,10.17
2022-10-22T07:05:22.011Z,10.67
2022-10-22T07:06:20.143Z,10.66
2022-10-22T07:07:16.866Z,10.66
2022-10-22T07:08:13.630Z,10.63
2022-10-22T07:09:10.609Z,9.95
2022-10-22T07:10:08.266Z,10.92
2022-10-22T07:11:10.454Z,10.46
2022-10-22T07:12:07.274Z,10.02
2022-10-22T07:13:03.940Z,10.13
2022-10-22T07:14:00.747Z,10.96
2022-10-22T07:14:57.433Z,10.93
2022-10-22T07:15:55.127Z,11.09
2022-10-22T07:16:51.998Z,11.08
2022-10-22T07:17:48.750Z,11.15
2022-10-22T07:18:46.669Z,11.00
2022-10-22T07:19:45.301Z,11.22
2022-10-22T07:20:43.846Z,11.13
2022-10-22T07:21:40.933Z,10.86
2022-10-22T07:22:37.718Z,10.42
2022-10-22T07:23:34.834Z,11.30
2022-10-22T07:24:31.688Z,11.31
2022-10-22T07:25:28.371Z,11.29
2022-10-22T07:26:25.633Z,10.86
2022-10-22T07:27:22.329Z,11.34
2022-10-22T07:28:19.173Z,11.03
2022-10-22T07:29:15.891Z,10.97
2022-10-22T07:30:12.943Z,11.26
2022-10-22T07:31:17.478Z,11.53
2022-10-22T07:32:14.187Z,11.38
2022-10-22T07:33:11.649Z,11.13
2022-10-22T07:34:08.725Z,11.60
2022-10-22T07:35:05.973Z,11.57
2022-10-22T07:36:06.650Z,11.65
2022-10-22T07:37:03.404Z,11.35
2022-10-22T07:38:00.901Z,11.86
2022-10-22T07:38:59.608Z,11.67
2022-10-22T07:39:58.400Z,11.63
2022-10-22T07:40:58.365Z,11.94
2022-10-22T07:41:55.129Z,11.85
2022-10-22T07:42:51.957Z,11.88
2022-10-22T07:43:48.710Z,11.46
2022-10-22T07:44:45.567Z,11.74
2022-10-22T07:45:42.374Z,11.62
2022-10-22T07:46:39.134Z,11.81
2022-10-22T07:47:35.901Z,11.86
2022-10-22T07:48:32.674Z,11.94
2022-10-22T07:49:29.421Z,11.91
2022-10-22T07:50:26.453Z,12.02
2022-10-22T07:51:23.386Z,12.02
2022-10-22T07:52:20.094Z,12.11
2022-10-22T07:53:17.140Z,11.95
2022-10-22T07:54:13.849Z,11.23
2022-10-22T07:55:10.954Z,12.13
2022-10-22T07:56:08.554Z,12.24
2022-10-22T07:57:05.255Z,12.11
2022-10-22T07:58:02.183Z,12.22
2022-10-22T07:58:59.044Z,12.13
2022-10-22T07:59:58.126Z,10.71
2022-10-22T08:00:56.711Z,12.23
2022-10-22T08:01:53.407Z,12.21
2022-10-22T08:02:50.141Z,12.17
2022-10-22T08:03:46.850Z,11.96
2022-10-22T08:04:43.619Z,11.61
2022-10-22T08:05:43.786Z,11.99
2022-10-22T08:06:44.526Z,12.44
2022-10-22T08:07:44.006Z,11.75
2022-10-22T08:08:41.824Z,12.40
2022-10-22T08:09:38.580Z,12.45
2022-10-22T08:10:35.372Z,12.44
2022-10-22T08:11:33.570Z,12.21
2022-10-22T08:12:30.273Z,12.44
2022-10-22T08:13:28.382Z,12.09
2022-10-22T08:14:25.158Z,12.42
2022-10-22T08:15:23.488Z,12.47
2022-10-22T08:16:20.320Z,12.50
2022-10-22T08:17:17.061Z,12.70
2022-10-22T08:18:13.828Z,12.92
2022-10-22T08:19:10.599Z,12.95
2022-10-22T08:20:07.867Z,12.13
2022-10-22T08:21:04.655Z,13.15
2022-10-22T08:22:02.359Z,12.21
2022-10-22T08:22:59.503Z,12.80
2022-10-22T08:23:56.414Z,12.41
2022-10-22T08:24:53.556Z,12.56
2022-10-22T08:25:50.331Z,12.79
2022-10-22T08:26:47.065Z,12.67
2022-10-22T08:27:44.909Z,11.99
2022-10-22T08:28:41.621Z,12.81
2022-10-22T08:29:38.381Z,13.00
2022-10-22T08:30:37.899Z,12.54
2022-10-22T08:31:35.076Z,12.82
2022-10-22T08:32:32.363Z,13.20
2022-10-22T08:33:29.135Z,13.38
2022-10-22T08:34:25.872Z,13.02
2022-10-22T08:35:23.138Z,12.76
2022-10-22T08:36:19.834Z,13.02
2022-10-22T08:37:17.793Z,13.32
2022-10-22T08:38:14.495Z,13.27
2022-10-22T08:39:11.237Z,13.43
2022-10-22T08:40:09.920Z,13.37
2022-10-22T08:41:15.726Z,13.20
2022-10-22T08:42:44.022Z,13.57
2022-10-22T08:43:55.597Z,13.44
2022-10-22T08:45:16.595Z,13.45
2022-10-22T08:46:40.622Z,13.31
2022-10-22T08:48:01.275Z,13.45
2022-10-22T08:49:03.125Z,13.57
2022-10-22T08:50:00.700Z,13.60
2022-10-22T08:50:58.498Z,13.04
2022-10-22T08:51:58.267Z,13.15
2022-10-22T08:53:00.136Z,13.60
2022-10-22T08:53:59.727Z,13.51
2022-10-22T08:54:59.822Z,13.37
2022-10-22T08:55:58.138Z,13.55
2022-10-22T08:57:17.547Z,13.69
2022-10-22T08:58:32.058Z,13.62
2022-10-22T09:00:05.477Z,13.34
2022-10-22T09:01:10.548Z,13.35
2022-10-22T09:02:31.152Z,13.14
2022-10-22T09:03:56.806Z,13.65
2022-10-22T09:05:27.268Z,13.75
2022-10-22T09:06:24.914Z,13.99
2022-10-22T09:07:21.775Z,13.95
2022-10-22T09:08:20.706Z,13.83
2022-10-22T09:09:20.273Z,13.93
2022-10-22T09:10:19.312Z,14.01
2022-10-22T09:11:22.303Z,13.37
2022-10-22T09:12:24.631Z,13.92
2022-10-22T09:13:23.987Z,13.61
2022-10-22T09:14:24.431Z,14.37
2022-10-22T09:15:21.313Z,14.36
2022-10-22T09:16:37.125Z,14.25
2022-10-22T09:18:05.965Z,13.98
2022-10-22T09:19:25.533Z,14.16
2022-10-22T09:20:55.067Z,14.29
2022-10-22T09:22:07.998Z,13.81
2022-10-22T09:23:25.876Z,14.16
2022-10-22T09:24:51.587Z,14.40
2022-10-22T09:25:51.587Z,14.22
2022-10-22T09:26:48.698Z,14.37
2022-10-22T09:27:45.464Z,14.42
2022-10-22T09:28:44.100Z,14.49
2022-10-22T09:29:41.395Z,13.50
2022-10-22T09:30:40.235Z,14.23
2022-10-22T09:31:37.054Z,14.02
2022-10-22T09:32:33.762Z,14.34
2022-10-22T09:33:31.812Z,14.30
2022-10-22T09:34:30.046Z,14.80
2022-10-22T09:35:26.899Z,14.30
2022-10-22T09:36:23.632Z,13.67
2022-10-22T09:37:27.515Z,14.58
2022-10-22T09:38:38.871Z,14.85
2022-10-22T09:39:43.675Z,15.12
2022-10-22T09:40:52.152Z,15.05
2022-10-22T09:41:51.297Z,14.34
2022-10-22T09:42:48.586Z,14.99
2022-10-22T09:43:48.648Z,14.18
2022-10-22T09:44:56.465Z,15.10
2022-10-22T09:45:59.656Z,15.12
2022-10-22T09:46:56.476Z,15.12
2022-10-22T09:48:28.003Z,15.09
2022-10-22T09:49:25.164Z,15.03
2022-10-22T09:50:49.401Z,15.27
2022-10-22T09:51:51.919Z,15.34
2022-10-22T09:53:00.488Z,15.43
2022-10-22T09:53:58.278Z,15.34
2022-10-22T09:54:55.031Z,15.29
2022-10-22T09:56:00.360Z,15.29
2022-10-22T09:57:03.762Z,15.23
2022-10-22T09:58:00.832Z,15.37
2022-10-22T09:58:57.975Z,15.29
2022-10-22T09:59:57.431Z,15.43
2022-10-22T10:00:57.866Z,15.13
2022-10-22T10:02:19.760Z,15.29
2022-10-22T10:03:20.016Z,15.49
2022-10-22T10:04:17.423Z,15.47
2022-10-22T10:05:26.682Z,15.37
2022-10-22T10:06:23.743Z,15.48
2022-10-22T10:07:27.065Z,15.35
2022-10-22T10:08:24.851Z,15.25
2022-10-22T10:09:25.459Z,15.44
2022-10-22T10:11:03.121Z,15.34
2022-10-22T10:12:17.717Z,15.52
2022-10-22T10:13:51.080Z,15.06
2022-10-22T10:15:28.243Z,15.70
2022-10-22T10:16:54.564Z,15.66
2022-10-22T10:18:06.378Z,14.84
2022-10-22T10:19:03.123Z,15.76
2022-10-22T10:20:14.869Z,15.66
2022-10-22T10:21:39.326Z,15.87
2022-10-22T10:24:25.125Z,15.97
2022-10-22T10:25:24.694Z,15.89
2022-10-22T10:26:43.505Z,15.74
2022-10-22T10:28:01.785Z,15.55
2022-10-22T10:29:04.487Z,16.02
2022-10-22T10:30:14.089Z,16.01
2022-10-22T10:31:43.352Z,15.96
2022-10-22T10:32:58.161Z,16.05
2022-10-22T10:34:10.575Z,15.37
2022-10-22T10:35:37.371Z,16.11
2022-10-22T10:36:34.078Z,16.06
2022-10-22T10:37:41.555Z,16.10
2022-10-22T10:38:40.823Z,16.26
2022-10-22T10:40:03.591Z,16.26
2022-10-22T10:41:41.942Z,16.21
2022-10-22T10:42:51.839Z,16.12
2022-10-22T10:44:16.048Z,16.20
2022-10-22T10:45:12.707Z,16.08
2022-10-22T10:46:12.138Z,16.22
2022-10-22T10:47:46.247Z,16.24
2022-10-22T10:48:51.167Z,16.35
2022-10-22T10:49:54.232Z,16.02
2022-10-22T10:51:16.987Z,16.43
2022-10-22T10:52:31.834Z,16.27
2022-10-22T10:53:53.242Z,16.41
2022-10-22T10:55:11.381Z,16.53
2022-10-22T10:56:32.622Z,16.56
2022-10-22T10:57:49.461Z,16.63
2022-10-22T10:59:14.831Z,16.72
2022-10-22T11:00:20.135Z,16.69
2022-10-22T11:01:56.300Z,16.57
2022-10-22T11:03:11.551Z,16.63
2022-10-22T11:04:27.280Z,16.60
2022-10-22T11:05:42.457Z,16.71
2022-10-22T11:06:42.037Z,16.85
2022-10-22T11:07:52.342Z,16.87
2022-10-22T11:09:03.002Z,16.84
2022-10-22T11:10:08.795Z,16.79
2022-10-22T11:11:37.626Z,16.90
2022-10-22T11:12:42.588Z,16.98
2022-10-22T11:13:53.609Z,16.78
2022-10-22T11:15:07.065Z,16.90
2022-10-22T11:16:16.775Z,16.77
2022-10-22T11:17:20.914Z,16.77
2022-10-22T11:18:47.846Z,17.04
2022-10-22T11:20:02.539Z,16.87
2022-10-22T11:21:23.857Z,17.23
2022-10-22T11:22:29.097Z,16.23
2022-10-22T11:23:38.077Z,17.15
2022-10-22T11:24:53.275Z,17.15
2022-10-22T11:25:51.193Z,16.95
2022-10-22T11:27:15.477Z,17.18
2022-10-22T11:28:32.997Z,17.02
2022-10-22T11:29:46.265Z,17.27
2022-10-22T11:30:49.679Z,17.32
2022-10-22T11:31:48.654Z,17.38
2022-10-22T11:33:00.543Z,17.22
2022-10-22T11:34:04.704Z,17.37
2022-10-22T11:35:14.634Z,17.32
2022-10-22T11:36:15.880Z,17.29
2022-10-22T11:37:15.074Z,17.33
2022-10-22T11:38:23.790Z,17.48
2022-10-22T11:39:42.390Z,17.52
2022-10-22T11:40:47.363Z,17.55
2022-10-22T11:41:45.431Z,17.54
2022-10-22T11:42:50.509Z,17.58
2022-10-22T11:44:10.517Z,17.60
2022-10-22T11:45:29.398Z,17.63
2022-10-22T11:46:38.281Z,17.42
2022-10-22T11:48:10.127Z,17.14
2022-10-22T11:49:09.836Z,17.58
2022-10-22T11:50:43.407Z,17.67
2022-10-22T11:51:42.930Z,17.69
2022-10-22T11:53:00.627Z,17.54
2022-10-22T11:54:01.355Z,17.37
2022-10-22T11:55:02.438Z,17.44
2022-10-22T11:56:08.002Z,17.69
2022-10-22T11:57:16.540Z,17.69
2022-10-22T11:58:28.658Z,17.69
2022-10-22T11:59:47.327Z,17.23
2022-10-22T12:00:49.179Z,17.48
2022-10-22T12:01:48.409Z,17.60
2022-10-22T12:02:46.002Z,17.24
2022-10-22T12:03:48.758Z,17.88
2022-10-22T12:04:45.500Z,17.81
2022-10-22T12:05:43.821Z,17.11
2022-10-22T12:06:56.955Z,17.95
2022-10-22T12:08:05.967Z,17.59
2022-10-22T12:09:07.139Z,17.40
2022-10-22T12:10:25.592Z,17.99
2022-10-22T12:11:49.919Z,18.04
2022-10-22T12:12:57.253Z,17.97
2022-10-22T12:14:15.509Z,18.02
2022-10-22T12:15:27.032Z,18.00
2022-10-22T12:16:32.351Z,17.72
2022-10-22T12:17:34.652Z,17.65
2022-10-22T12:18:41.861Z,18.05
2022-10-22T12:19:48.089Z,17.94
2022-10-22T12:20:51.154Z,17.71
2022-10-22T12:21:54.236Z,18.02
2022-10-22T12:22:53.322Z,18.02
2022-10-22T12:23:51.689Z,17.84
2022-10-22T12:25:00.854Z,18.03
2022-10-22T12:25:58.371Z,17.92
2022-10-22T12:26:55.184Z,18.03
2022-10-22T12:27:55.098Z,18.06
2022-10-22T12:29:00.493Z,18.09
2022-10-22T12:29:59.433Z,18.22
2022-10-22T12:30:59.796Z,18.26
2022-10-22T12:31:57.703Z,18.17
2022-10-22T12:33:02.415Z,18.21
2022-10-22T12:33:59.867Z,17.62
2022-10-22T12:34:56.568Z,18.12
2022-10-22T12:35:57.530Z,18.34
2022-10-22T12:36:54.345Z,18.19
2022-10-22T12:37:54.729Z,18.25
2022-10-22T12:38:51.713Z,18.14
2022-10-22T12:39:48.674Z,17.10
2022-10-22T12:40:48.776Z,17.62
2022-10-22T12:41:46.704Z,18.27
2022-10-22T12:43:13.880Z,18.44
2022-10-22T12:44:15.292Z,18.42
2022-10-22T12:45:11.990Z,18.42
2022-10-22T12:46:16.441Z,18.13
2022-10-22T12:47:18.337Z,18.16
2022-10-22T12:48:20.679Z,18.09
2022-10-22T12:49:22.436Z,18.51
2022-10-22T12:50:23.232Z,17.75
2022-10-22T12:51:20.692Z,18.16
2022-10-22T12:52:23.546Z,18.21
2022-10-22T12:53:25.096Z,18.49
2022-10-22T12:54:31.008Z,18.50
2022-10-22T12:55:27.805Z,18.52
2022-10-22T12:56:28.633Z,18.55
2022-10-22T12:57:25.678Z,18.37
2022-10-22T12:58:38.177Z,18.57
2022-10-22T12:59:38.668Z,18.59
2022-10-22T13:00:36.025Z,18.69
2022-10-22T13:01:39.136Z,18.73
2022-10-22T13:02:36.016Z,18.55
2022-10-22T13:03:41.470Z,18.72
2022-10-22T13:04:38.414Z,18.77
2022-10-22T13:05:41.910Z,18.76
2022-10-22T13:06:45.258Z,18.86
2022-10-22T13:07:47.168Z,18.60
2022-10-22T13:08:43.974Z,18.85
2022-10-22T13:09:57.894Z,18.81
2022-10-22T13:10:55.022Z,18.48
2022-10-22T13:12:05.185Z,18.78
2022-10-22T13:13:07.011Z,18.54
2022-10-22T13:14:38.144Z,18.82
2022-10-22T13:15:39.062Z,18.61
2022-10-22T13:17:41.137Z,18.80
2022-10-22T13:18:38.735Z,18.81
2022-10-22T13:20:02.073Z,18.77
2022-10-22T13:21:03.267Z,18.52
2022-10-22T13:21:59.978Z,18.54
2022-10-22T13:23:02.735Z,18.66
2022-10-22T13:24:03.271Z,18.81
2022-10-22T13:25:14.673Z,18.78
2022-10-22T13:26:17.811Z,18.63
2022-10-22T13:27:14.574Z,18.77
2022-10-22T13:28:22.209Z,17.33
2022-10-22T13:29:22.591Z,18.70
2022-10-22T13:30:26.230Z,18.70
2022-10-22T13:31:34.338Z,18.72
2022-10-22T13:32:34.050Z,18.74
2022-10-22T13:33:35.072Z,18.77
2022-10-22T13:34:32.468Z,18.76
2022-10-22T13:35:33.155Z,18.73